Lake Charles, LA

3:51 AM CDT on October 01, 2014 (GMT -0500)
Chennault International | Change Station
CLOSE
Current Station
Airport
Location: Lake Charles,
Elevation: 13 ft
Nearby Weather Stations

Elev 13 ft 30.21 °N, 93.14 °W | Updated 16 minutes ago

Mostly Cloudy
Mostly Cloudy
74 °F
Feels Like 74 °F
N
5
Wind Variable Wind from East

Today
High -- | Low -- °F
--% Chance of Precip.
Yesterday
High -- | Low -- °F
Precip. -- in
7:06 AM 6:58 PM
Waxing Crescent, 45% visible
Pressure 29.84 in
Visibility 0.2 miles
Clouds Overcast 100 ft
Dew Point 74 °F
Humidity 99%
Rainfall 0.00 in
Snow Depth Not available.
UV 0 out of 12
Pollen 7.50 out of 12
Air Quality Not available.
Flu Activity Not available.
METAR KCWF 010835Z AUTO 09004KT 1/4SM FG OVC001 23/23 A2984 RMK AO2 T02330232

More Conditions Fewer Conditions

Pressure 29.84 in
Visibility 0.2 miles
Clouds Overcast 100 ft
Dew Point 74 °F
Humidity 99%
Rainfall 0.00 in
Snow Depth Not available.
UV 0 out of 12
Pollen 7.50 out of 12
Air Quality Not available.
Flu Activity Not available.
METAR KCWF 010835Z AUTO 09004KT 1/4SM FG OVC001 23/23 A2984 RMK AO2 T02330232

More Conditions Fewer Conditions

10-Day Weather Forecast

Almanac

Astronomy

Oct. 01, 2014 Rise Set
Actual Time 7:06 AM CDT 6:58 PM CDT
Civil Twilight 6:42 AM CDT 7:22 PM CDT
Nautical Twilight 6:14 AM CDT 7:49 PM CDT
Astronomical Twilight 5:46 AM CDT 8:17 PM CDT
Moon 1:50 PM CDT No Moon Set
Length of Visible Light 12h 39m
Length of Day
11h 51m
Tomorrow will be 1m 48s shorter.
Waxing Crescent, 45% of the Moon is Illuminated
Today
Waxing Crescent
Oct 1
First Quarter
Oct 8
Full
Oct 15
Last Quarter
Oct 23
New

Today's Extremes

State Highs State Lows

Community

WunderPhotos

Upload Photos

1,757,902 photos uploaded!

Nearby

Snow Depth

Station Depth Elevation
No new snow has been reported.

Earthquake Activity

City Distance Mag. Time & Date
No recent earthquake activity has been reported nearby.
Minimum magnitude displayed is 2.5.

Coastal Water Temperatures

Place Temperature
Calcasieu Pass, LA 81.0 °F
Sabine Pass North, TX 81.0 °F
Port Arthur, TX 81.0 °F
Fresh Water Canal Locks, LA 82.9 °F
Rollover Pass, TX 80.1 °F

Nearby Weather Stations